Douradina, Brazil
Current Conditions -  °F | °C
As of 5:00 AM on Wednesday 22 Oct 2014 (Local Time) from SBCG Reporting Station
Clear Clear  
Wind Chill: 68°   Ceiling: Unl
Heat Index: 68°   Visibility: 6mi
Dew Point: 59°   Wind: 14mph
Humidity: 73%   Direction: 100°E
Pressure: 29.97"   Gusts: NA
Location:  22.04°S, 54.61°W
Report Text: SBCG 220800Z 10012KT 070V130 CAVOK 20/15 Q1015
Loading
Personal Weather Stations






























Interactive Weather Map
Tropical Storm Tracking
New forecast layout! Learn more

10-Day Weather Forecast

Advertisements
Track Severe Weather on mobile